Time;durP1;ratioP1;P1;durP2;ratioP2;P2;SDS_P1;SDS_P2;PMS_P1;PMS_P2;Temp;Humidity;BMP_temperature;BMP_pressure;BME280_temperature;BME280_humidity;BME280_pressure;Samples;Min_cycle;Max_cycle;Signal;HPM_P1;HPM_P2
2022/04/01 00:00:50;;;;;;;6.93;3.37;;;;;;;3.71;44.26;99176.67;1700200;84;21035;-73
2022/04/01 00:03:17;;;;;;;6.67;3.20;;;;;;;3.70;44.25;99179.33;1700426;84;21118;-72
2022/04/01 00:05:44;;;;;;;6.90;3.30;;;;;;;3.67;44.22;99186.74;1700211;84;21553;-72
2022/04/01 00:08:13;;;;;;;6.73;3.40;;;;;;;3.63;44.38;99179.09;1700421;84;21476;-72
2022/04/01 00:10:41;;;;;;;6.00;3.40;;;;;;;3.58;44.54;99188.31;1700271;84;21016;-72
2022/04/01 00:13:08;;;;;;;6.23;3.43;;;;;;;3.55;44.92;99183.22;1700493;84;21520;-71
2022/04/01 00:15:35;;;;;;;6.17;3.43;;;;;;;3.53;44.95;99175.92;1700166;84;21122;-72
2022/04/01 00:18:03;;;;;;;8.50;3.70;;;;;;;3.49;44.98;99180.34;1700327;84;21486;-72
2022/04/01 00:20:31;;;;;;;7.60;3.30;;;;;;;3.48;45.07;99168.72;1700147;84;20997;-72
2022/04/01 00:22:59;;;;;;;6.37;3.10;;;;;;;3.48;45.22;99177.34;1700453;84;20993;-72
2022/04/01 00:25:28;;;;;;;6.80;3.00;;;;;;;3.46;45.24;99179.56;1700215;84;21039;-72
2022/04/01 00:27:56;;;;;;;8.53;4.10;;;;;;;3.44;45.39;99171.01;1700423;84;21104;-71
2022/04/01 00:30:23;;;;;;;8.10;3.23;;;;;;;3.41;45.55;99177.13;1700222;84;20985;-77
2022/04/01 00:32:50;;;;;;;8.80;2.93;;;;;;;3.39;45.46;99181.48;1700443;84;21008;-72
2022/04/01 00:35:17;;;;;;;9.17;3.33;;;;;;;3.37;45.60;99185.01;1700200;84;21036;-72
2022/04/01 00:37:44;;;;;;;6.60;3.20;;;;;;;3.35;45.61;99188.50;1700291;84;20981;-72
2022/04/01 00:40:12;;;;;;;8.87;3.93;;;;;;;3.35;45.71;99186.33;1700209;84;21951;-72
2022/04/01 00:42:45;;;;;;;8.00;3.20;;;;;;;3.32;45.86;99180.78;1700352;84;21471;-72
2022/04/01 00:45:15;;;;;;;6.47;3.50;;;;;;;3.29;46.08;99184.75;1700187;84;21548;-71
2022/04/01 00:47:43;;;;;;;7.50;3.57;;;;;;;3.26;46.12;99187.43;1700448;84;21028;-72
2022/04/01 00:50:11;;;;;;;7.37;3.80;;;;;;;3.20;46.27;99192.78;1700373;84;21051;-72
2022/04/01 00:52:42;;;;;;;6.87;3.50;;;;;;;3.16;46.43;99194.19;1700189;84;21198;-72
2022/04/01 00:55:09;;;;;;;14.30;4.70;;;;;;;3.15;46.72;99196.38;1700570;84;21031;-72
2022/04/01 00:57:37;;;;;;;7.00;3.97;;;;;;;3.12;46.85;99190.38;1700146;84;21051;-72
2022/04/01 01:00:07;;;;;;;7.00;3.80;;;;;;;3.09;46.91;99189.17;1700438;84;21541;-72
2022/04/01 01:02:35;;;;;;;6.45;3.12;;;;;;;3.07;47.09;99188.80;1700450;84;21064;-72
2022/04/01 01:05:03;;;;;;;6.67;3.40;;;;;;;3.05;47.12;99184.13;1700388;84;21108;-72
2022/04/01 01:07:31;;;;;;;7.63;3.70;;;;;;;2.97;47.33;99185.62;1700255;84;21569;-72
2022/04/01 01:09:59;;;;;;;7.70;3.33;;;;;;;2.96;47.53;99190.37;1700323;84;21016;-71
2022/04/01 01:12:27;;;;;;;7.07;3.00;;;;;;;2.95;47.60;99189.97;1700296;84;21001;-72
2022/04/01 01:14:54;;;;;;;7.83;3.23;;;;;;;2.92;47.70;99187.47;1700452;84;21040;-72
2022/04/01 01:17:21;;;;;;;8.10;3.53;;;;;;;2.89;47.66;99185.80;1700280;84;22004;-71
2022/04/01 01:19:49;;;;;;;5.73;3.10;;;;;;;2.88;47.76;99181.95;1700224;84;21000;-72
2022/04/01 01:22:16;;;;;;;7.53;2.87;;;;;;;2.85;47.59;99175.55;1700464;84;21035;-72
2022/04/01 01:24:44;;;;;;;6.63;3.10;;;;;;;2.81;47.56;99177.83;1700395;84;21019;-72
2022/04/01 01:27:13;;;;;;;6.53;3.10;;;;;;;2.80;47.62;99179.99;1700383;84;21087;-72
2022/04/01 01:29:42;;;;;;;7.50;3.03;;;;;;;2.77;47.61;99180.07;1700244;84;21536;-72
2022/04/01 01:32:14;;;;;;;7.07;3.00;;;;;;;2.76;47.67;99174.50;1700477;84;21063;-72
2022/04/01 01:34:41;;;;;;;6.23;3.23;;;;;;;2.75;47.64;99172.81;1700324;84;21440;-72
2022/04/01 01:37:11;;;;;;;6.50;3.53;;;;;;;2.72;47.57;99170.31;1700581;84;21501;-72
2022/04/01 01:39:40;;;;;;;6.40;3.00;;;;;;;2.71;47.71;99177.64;1700262;84;21282;-72
2022/04/01 01:42:08;;;;;;;5.93;3.00;;;;;;;2.70;47.58;99167.74;1700328;84;21312;-72
2022/04/01 01:44:36;;;;;;;6.70;3.20;;;;;;;2.70;47.64;99165.16;1700225;84;21008;-71
2022/04/01 01:47:04;;;;;;;5.07;3.00;;;;;;;2.71;47.75;99166.84;1700623;84;21281;-72
2022/04/01 01:49:32;;;;;;;5.73;2.83;;;;;;;2.72;47.88;99173.73;1700314;84;20959;-72
2022/04/01 01:54:49;;;;;;;5.77;3.17;;;;;;;2.71;47.64;99164.70;1700365;84;21214;-72
2022/04/01 01:57:20;;;;;;;6.27;2.83;;;;;;;2.67;47.73;99158.31;1700804;84;21489;-72
2022/04/01 01:59:52;;;;;;;6.23;3.37;;;;;;;2.66;47.68;99161.80;1700270;84;21032;-72
2022/04/01 02:02:20;;;;;;;7.10;3.27;;;;;;;2.64;47.79;99162.28;1700731;84;21024;-72
2022/04/01 02:04:49;;;;;;;9.17;3.33;;;;;;;2.59;47.80;99165.87;1700254;84;21028;-72
2022/04/01 02:07:18;;;;;;;6.20;3.00;;;;;;;2.55;47.87;99153.45;1700228;84;21890;-72
2022/04/01 02:09:46;;;;;;;9.07;3.20;;;;;;;2.53;47.97;99155.67;1700188;84;21005;-72
2022/04/01 02:12:16;;;;;;;5.37;2.93;;;;;;;2.48;48.16;99159.66;1700243;84;21031;-72
2022/04/01 02:14:43;;;;;;;7.00;3.07;;;;;;;2.44;48.19;99162.77;1700342;84;21031;-77
2022/04/01 02:17:11;;;;;;;6.93;2.90;;;;;;;2.41;48.34;99164.14;1700297;84;21508;-72
2022/04/01 02:19:38;;;;;;;8.13;3.70;;;;;;;2.40;48.54;99162.42;1700246;84;21630;-72
2022/04/01 02:22:07;;;;;;;7.03;3.43;;;;;;;2.33;48.53;99162.59;1700278;84;21016;-72
2022/04/01 02:24:36;;;;;;;5.97;3.40;;;;;;;2.26;48.71;99161.05;1670489;84;21106;-72
2022/04/01 02:27:03;;;;;;;5.23;2.73;;;;;;;2.22;48.82;99162.86;1700283;84;21540;-71
2022/04/01 02:29:33;;;;;;;6.23;2.90;;;;;;;2.20;48.93;99158.16;1700511;84;21035;-71
2022/04/01 02:32:12;;;;;;;5.10;2.43;;;;;;;2.20;49.04;99155.13;1676721;84;21455;-71
2022/04/01 02:34:44;;;;;;;7.63;3.57;;;;;;;2.19;49.09;99154.73;1664411;86;21034;-71
2022/04/01 02:37:11;;;;;;;6.80;3.20;;;;;;;2.22;49.32;99155.95;1700450;84;21050;-71
2022/04/01 02:39:40;;;;;;;5.83;3.10;;;;;;;2.20;49.23;99159.45;1700457;84;21011;-72
2022/04/01 02:42:08;;;;;;;8.57;2.90;;;;;;;2.17;49.14;99167.28;1700542;84;21035;-72
2022/04/01 02:44:35;;;;;;;7.07;3.63;;;;;;;2.14;49.30;99171.23;1700753;84;21901;-72
2022/04/01 02:47:03;;;;;;;5.77;3.23;;;;;;;2.09;49.47;99159.70;1700460;84;20996;-71
2022/04/01 02:49:30;;;;;;;7.07;2.90;;;;;;;2.05;49.73;99158.08;1700825;84;21497;-72
2022/04/01 02:52:00;;;;;;;6.63;3.27;;;;;;;2.00;49.76;99165.08;1668194;86;21046;-71
2022/04/01 02:54:27;;;;;;;6.37;3.77;;;;;;;1.94;49.94;99171.23;1700861;84;21776;-72
2022/04/01 02:56:57;;;;;;;5.53;3.30;;;;;;;1.89;49.86;99173.06;1700620;84;21508;-72
2022/04/01 02:59:25;;;;;;;7.13;3.40;;;;;;;1.88;50.10;99164.88;1700704;84;21031;-72
2022/04/01 03:01:54;;;;;;;5.33;3.20;;;;;;;1.88;50.22;99173.08;1700521;84;21027;-71
2022/04/01 03:04:22;;;;;;;5.07;2.93;;;;;;;1.85;50.33;99175.28;1700875;84;21004;-76
2022/04/01 03:06:51;;;;;;;9.65;4.10;;;;;;;1.84;50.38;99170.16;1699596;84;21064;-71
2022/04/01 03:09:19;;;;;;;7.03;3.30;;;;;;;1.80;50.56;99166.77;1700851;84;21128;-72
2022/04/01 03:12:14;;;;;;;7.97;3.10;;;;;;;1.77;50.68;99171.59;1699370;84;21032;-72
2022/04/01 03:14:51;;;;;;;4.87;3.10;;;;;;;1.71;50.91;99172.98;1700927;84;21024;-73
2022/04/01 03:17:23;;;;;;;8.23;3.17;;;;;;;1.63;51.26;99177.45;1696153;84;21062;-72
2022/04/01 03:19:51;;;;;;;13.27;3.93;;;;;;;1.59;51.51;99169.83;1700845;84;21023;-72
2022/04/01 03:22:20;;;;;;;5.27;2.90;;;;;;;1.55;51.80;99174.18;1700589;84;22156;-72
2022/04/01 03:24:48;;;;;;;8.77;3.27;;;;;;;1.51;52.11;99178.56;1700438;84;21023;-72
2022/04/01 03:27:15;;;;;;;6.30;2.87;;;;;;;1.48;52.39;99179.08;1700611;84;21529;-71
2022/04/01 03:29:42;;;;;;;5.20;2.80;;;;;;;1.47;52.45;99173.48;1700770;84;21068;-73
2022/04/01 03:32:10;;;;;;;8.87;4.00;;;;;;;1.45;52.41;99164.94;1700467;84;21042;-71
2022/04/01 03:34:38;;;;;;;5.73;2.90;;;;;;;1.41;52.61;99172.31;1700736;84;21110;-72
2022/04/01 03:37:06;;;;;;;6.67;3.10;;;;;;;1.37;52.77;99172.83;1700487;84;21059;-72
2022/04/01 03:39:36;;;;;;;6.43;3.23;;;;;;;1.34;53.09;99169.02;1700549;84;21019;-72
2022/04/01 03:42:06;;;;;;;7.00;3.20;;;;;;;1.28;53.31;99175.59;1700508;84;21037;-72
2022/04/01 03:44:37;;;;;;;16.10;7.87;;;;;;;1.23;53.60;99181.28;1700863;84;21039;-77
2022/04/01 03:47:25;;;;;;;5.63;3.70;;;;;;;1.18;54.01;99180.06;1700582;84;21182;-72
2022/04/01 03:49:57;;;;;;;8.98;2.98;;;;;;;1.11;54.03;99176.75;1672942;84;21465;-71
2022/04/01 03:52:25;;;;;;;5.93;3.37;;;;;;;1.08;54.43;99178.11;1700243;84;21067;-70
2022/04/01 03:54:59;;;;;;;11.73;4.93;;;;;;;1.09;54.55;99178.50;1700918;84;21004;-70
2022/04/01 03:57:40;;;;;;;7.23;4.23;;;;;;;1.05;54.56;99182.03;1696403;84;21044;-70
2022/04/01 04:00:16;;;;;;;5.83;3.23;;;;;;;1.03;54.99;99186.81;1645521;86;21305;-71
2022/04/01 04:02:45;;;;;;;8.43;3.87;;;;;;;1.01;55.17;99189.40;1698925;84;20972;-71
2022/04/01 04:05:16;;;;;;;21.77;9.83;;;;;;;0.98;55.29;99189.45;1700731;84;21036;-71
2022/04/01 04:07:44;;;;;;;9.68;3.77;;;;;;;0.92;55.62;99184.41;1673486;84;21005;-71
2022/04/01 04:10:13;;;;;;;5.40;3.35;;;;;;;0.89;55.87;99186.60;1700555;84;21067;-71
2022/04/01 04:12:49;;;;;;;5.97;3.67;;;;;;;0.87;55.97;99184.92;1698961;84;21190;-71
2022/04/01 04:15:16;;;;;;;8.73;4.90;;;;;;;0.83;56.22;99182.84;1700630;84;21004;-71
2022/04/01 04:17:46;;;;;;;8.63;3.13;;;;;;;0.80;56.44;99181.58;1700554;84;21035;-71
2022/04/01 04:20:36;;;;;;;9.20;3.70;;;;;;;0.75;56.77;99178.25;1672938;84;21485;-71
2022/04/01 04:23:18;;;;;;;7.17;3.20;;;;;;;0.75;57.12;99185.98;1700491;84;21501;-71
2022/04/01 04:26:03;;;;;;;7.53;4.13;;;;;;;0.73;57.22;99185.60;1700394;83;21573;-71
2022/04/01 04:28:40;;;;;;;6.37;3.03;;;;;;;0.71;57.53;99189.92;1632729;87;21065;-71
2022/04/01 04:31:28;;;;;;;8.43;4.13;;;;;;;0.69;57.62;99188.64;1616747;88;20977;-72
2022/04/01 04:34:14;;;;;;;13.27;4.70;;;;;;;0.65;57.93;99202.03;1562187;91;21044;-77
2022/04/01 04:36:43;;;;;;;5.83;3.23;;;;;;;0.62;58.38;99193.06;1616982;88;22098;-71
2022/04/01 04:39:18;;;;;;;8.70;3.30;;;;;;;0.62;58.27;99193.06;1616730;88;22113;-71
2022/04/01 04:41:50;;;;;;;9.47;3.77;;;;;;;0.58;58.38;99194.00;1588080;90;21079;-71
2022/04/01 04:44:19;;;;;;;6.97;3.40;;;;;;;0.56;58.44;99191.03;1616819;88;21543;-71
2022/04/01 04:46:48;;;;;;;7.77;4.10;;;;;;;0.53;58.89;99198.38;1623376;88;20962;-71
2022/04/01 04:49:19;;;;;;;5.35;3.35;;;;;;;0.54;58.96;99199.22;1619059;88;21041;-71
2022/04/01 04:51:50;;;;;;;6.53;3.30;;;;;;;0.52;58.94;99201.81;1623558;88;21175;-72
2022/04/01 04:54:32;;;;;;;6.27;3.50;;;;;;;0.48;59.06;99198.03;1618567;88;21078;-71
2022/04/01 04:57:01;;;;;;;10.32;2.95;;;;;;;0.49;59.38;99210.04;1616842;88;21026;-71
2022/04/01 04:59:30;;;;;;;13.27;5.30;;;;;;;0.47;59.45;99202.31;1630108;87;21050;-71
2022/04/01 05:02:18;;;;;;;6.13;3.10;;;;;;;0.47;59.65;99206.18;1592549;88;21088;-71
2022/04/01 05:05:10;;;;;;;6.60;3.07;;;;;;;0.49;59.77;99207.02;1623193;85;21232;-71
2022/04/01 05:08:10;;;;;;;6.07;3.40;;;;;;;0.47;59.66;99207.47;1699108;83;20980;-71
2022/04/01 05:10:54;;;;;;;17.67;7.27;;;;;;;0.48;59.92;99211.77;1703684;84;21480;-71
2022/04/01 05:13:43;;;;;;;5.37;3.27;;;;;;;0.49;59.95;99220.35;1688008;85;21032;-71
2022/04/01 05:16:18;;;;;;;9.90;5.62;;;;;;;0.47;59.95;99207.47;1690342;84;21120;-72
2022/04/01 05:18:50;;;;;;;6.07;3.30;;;;;;;0.51;60.15;99219.45;1688950;84;21125;-71
2022/04/01 05:21:22;;;;;;;5.53;2.93;;;;;;;0.52;60.19;99222.44;1688263;85;21021;-71
2022/04/01 05:23:54;;;;;;;5.37;2.97;;;;;;;0.56;60.23;99219.39;1688598;85;21533;-73
2022/04/01 05:26:38;;;;;;;7.07;2.73;;;;;;;0.60;60.15;99214.59;1688335;85;21080;-72
2022/04/01 05:29:26;;;;;;;6.43;3.00;;;;;;;0.63;59.82;99220.98;1672782;85;21060;-71
2022/04/01 05:32:07;;;;;;;7.60;3.00;;;;;;;0.68;59.91;99218.34;1660516;86;21154;-71
2022/04/01 05:34:49;;;;;;;7.80;3.10;;;;;;;0.69;59.75;99219.59;1660699;86;21105;-71
2022/04/01 05:37:18;;;;;;;5.33;2.80;;;;;;;0.73;59.80;99226.87;1660522;86;21111;-71
2022/04/01 05:39:47;;;;;;;7.13;3.40;;;;;;;0.74;59.61;99222.95;1660544;86;21546;-78
2022/04/01 05:42:18;;;;;;;4.17;2.60;;;;;;;0.76;59.54;99222.94;1660568;86;21107;-71
2022/04/01 05:44:47;;;;;;;8.30;3.20;;;;;;;0.77;59.46;99226.77;1657078;86;21557;-71
2022/04/01 05:47:15;;;;;;;6.27;2.93;;;;;;;0.80;59.45;99227.16;1660516;86;21083;-72
2022/04/01 05:49:46;;;;;;;5.63;2.60;;;;;;;0.83;59.49;99221.95;1634401;86;21013;-72
2022/04/01 05:52:14;;;;;;;5.37;3.07;;;;;;;0.82;59.13;99224.13;1672072;85;21001;-71
2022/04/01 05:54:43;;;;;;;5.63;2.73;;;;;;;0.81;59.19;99222.44;1660574;86;21123;-71
2022/04/01 05:57:13;;;;;;;5.70;3.00;;;;;;;0.82;59.08;99222.39;1682093;84;21189;-71
2022/04/01 05:59:41;;;;;;;5.33;2.90;;;;;;;0.84;58.92;99211.62;1684159;85;21028;-73
2022/04/01 06:02:44;;;;;;;8.10;2.63;;;;;;;0.85;58.87;99221.50;1688398;85;21091;-78
2022/04/01 06:05:25;;;;;;;7.60;3.43;;;;;;;0.87;58.87;99225.75;1688494;85;20989;-71
2022/04/01 06:08:19;;;;;;;8.87;2.80;;;;;;;0.94;58.93;99230.36;1698142;84;21039;-72
2022/04/01 06:11:11;;;;;;;5.30;2.90;;;;;;;1.01;58.85;99227.26;1641128;87;21130;-71
2022/04/01 06:14:09;;;;;;;5.40;3.23;;;;;;;1.04;58.55;99229.34;1554273;90;20987;-78
2022/04/01 06:17:02;;;;;;;3.87;2.43;;;;;;;1.05;58.51;99231.47;1641914;87;21531;-77
2022/04/01 06:19:45;;;;;;;5.07;2.67;;;;;;;1.07;58.57;99228.44;1640289;85;21038;-76
2022/04/01 06:22:18;;;;;;;5.60;2.83;;;;;;;1.08;58.31;99231.01;1634339;86;21530;-72
2022/04/01 06:25:03;;;;;;;5.70;2.70;;;;;;;1.14;58.31;99228.76;1624175;87;21158;-71
2022/04/01 06:27:44;;;;;;;7.50;2.87;;;;;;;1.18;58.15;99226.52;1615701;87;21139;-72
2022/04/01 06:30:14;;;;;;;5.60;2.80;;;;;;;1.25;58.09;99223.41;1646024;85;21519;-72
2022/04/01 06:32:54;;;;;;;4.70;2.67;;;;;;;1.30;57.90;99232.77;1642444;85;21016;-79
2022/04/01 06:35:35;;;;;;;4.92;2.47;;;;;;;1.32;57.60;99224.53;1630020;87;21560;-72
2022/04/01 06:38:05;;;;;;;;;;;;;;;1.31;57.48;99237.05;1635594;86;21954;-79
2022/04/01 06:41:09;;;;;;;8.27;3.00;;;;;;;1.36;57.34;99234.39;1593823;87;20168;-79
2022/04/01 06:43:42;;;;;;;7.13;3.03;;;;;;;1.40;57.37;99230.85;1555203;92;21093;-78
2022/04/01 06:46:19;;;;;;;6.87;3.00;;;;;;;1.43;56.96;99228.66;1501724;93;21112;-78
2022/04/01 06:48:48;;;;;;;6.70;2.50;;;;;;;1.44;56.95;99227.77;1611950;88;21050;-79
2022/04/01 06:51:37;;;;;;;8.73;2.60;;;;;;;1.47;56.78;99227.29;1661466;84;21152;-74
2022/04/01 06:54:22;;;;;;;6.13;3.03;;;;;;;1.52;56.61;99222.89;1697542;84;21028;-73
2022/04/01 06:57:07;;;;;;;4.80;2.93;;;;;;;1.53;56.42;99227.61;1669047;86;21590;-75
2022/04/01 06:59:53;;;;;;;5.40;2.83;;;;;;;1.56;56.36;99235.30;1669047;86;20992;-72
2022/04/01 07:02:20;;;;;;;8.33;2.87;;;;;;;1.58;56.40;99226.21;1640526;85;21046;-72
2022/04/01 07:04:47;;;;;;;10.97;3.20;;;;;;;1.59;56.26;99226.64;1697019;84;22138;-72
2022/04/01 07:07:14;;;;;;;4.10;2.67;;;;;;;1.59;56.13;99230.52;1697250;84;21027;-72
2022/04/01 07:09:41;;;;;;;7.53;2.90;;;;;;;1.62;56.16;99227.88;1697148;84;20963;-72
2022/04/01 07:12:08;;;;;;;6.13;3.13;;;;;;;1.62;56.06;99226.58;1697327;84;21047;-71
2022/04/01 07:14:35;;;;;;;4.67;2.43;;;;;;;1.64;56.05;99233.87;1696800;84;21051;-74
2022/04/01 07:17:03;;;;;;;4.43;2.53;;;;;;;1.72;56.15;99228.95;1697440;84;21822;-74
2022/04/01 07:19:30;;;;;;;6.30;2.50;;;;;;;1.78;55.92;99232.70;1667802;86;21544;-73
2022/04/01 07:21:56;;;;;;;4.60;2.80;;;;;;;1.84;55.79;99227.85;1697308;84;21020;-73
2022/04/01 07:24:25;;;;;;;7.97;3.13;;;;;;;1.92;55.61;99231.13;1697077;84;21087;-72
2022/04/01 07:26:52;;;;;;;5.83;2.93;;;;;;;2.06;55.73;99223.09;1697293;84;21012;-73
2022/04/01 07:29:20;;;;;;;7.37;3.27;;;;;;;2.20;55.82;99221.05;1697013;84;39176;-73
2022/04/01 07:34:42;;;;;;;7.47;3.10;;;;;;;2.35;55.05;99226.77;1692579;84;21031;-73
2022/04/01 07:37:11;;;;;;;7.58;2.98;;;;;;;2.46;55.11;99226.08;1701057;83;21103;-73
2022/04/01 07:39:38;;;;;;;8.50;2.93;;;;;;;2.56;54.75;99228.88;1697615;83;21035;-73
2022/04/01 07:42:06;;;;;;;8.57;3.00;;;;;;;2.62;54.52;99229.17;1668944;86;21155;-73
2022/04/01 07:44:33;;;;;;;6.73;2.90;;;;;;;2.61;54.33;99236.09;1698946;84;21437;-72
2022/04/01 07:47:01;;;;;;;6.37;3.33;;;;;;;2.62;54.20;99238.22;1700703;84;21039;-73
2022/04/01 07:49:28;;;;;;;10.27;3.20;;;;;;;2.63;54.13;99238.62;1700472;84;21425;-73
2022/04/01 07:51:55;;;;;;;6.90;2.70;;;;;;;2.59;53.88;99227.95;1700716;84;21583;-72
2022/04/01 07:54:22;;;;;;;6.10;3.57;;;;;;;2.56;53.90;99232.75;1700480;84;22042;-73
2022/04/01 07:56:49;;;;;;;6.17;3.17;;;;;;;2.56;53.84;99230.61;1672411;85;21521;-72
2022/04/01 07:59:18;;;;;;;9.27;2.70;;;;;;;2.56;53.83;99233.20;1684389;82;21580;-74
2022/04/01 08:01:45;;;;;;;7.07;3.20;;;;;;;2.55;53.65;99232.77;1688871;84;21019;-72
2022/04/01 08:04:11;;;;;;;10.63;3.10;;;;;;;2.52;53.54;99240.16;1697961;84;21039;-72
2022/04/01 08:06:38;;;;;;;8.03;3.20;;;;;;;2.48;53.54;99242.42;1697660;83;21114;-71
2022/04/01 08:09:05;;;;;;;6.67;3.23;;;;;;;2.46;53.55;99245.02;1699013;84;21039;-73
2022/04/01 08:11:33;;;;;;;9.27;3.17;;;;;;;2.50;53.50;99247.57;1711536;82;20971;-72
2022/04/01 08:14:00;;;;;;;9.83;3.20;;;;;;;2.50;53.42;99249.70;1686809;83;21043;-74
2022/04/01 08:16:27;;;;;;;9.77;4.03;;;;;;;2.49;53.31;99253.16;1700853;84;21161;-73
2022/04/01 08:18:54;;;;;;;5.70;3.00;;;;;;;2.52;53.24;99250.95;1700389;84;21982;-73
2022/04/01 08:21:21;;;;;;;7.97;3.40;;;;;;;2.53;53.07;99257.84;1704213;83;21605;-73
2022/04/01 08:23:48;;;;;;;5.23;3.50;;;;;;;2.53;53.05;99253.52;1707184;83;21075;-75
2022/04/01 08:26:15;;;;;;;6.10;3.20;;;;;;;2.54;53.04;99256.50;1690764;83;20983;-74
2022/04/01 08:28:41;;;;;;;6.77;2.90;;;;;;;2.57;52.93;99258.17;1680009;85;21071;-74
2022/04/01 08:31:09;;;;;;;5.63;2.87;;;;;;;2.63;53.13;99258.90;1679853;83;21058;-75
2022/04/01 08:33:37;;;;;;;9.43;3.27;;;;;;;2.65;52.79;99254.96;1673570;84;21011;-74
2022/04/01 08:36:05;;;;;;;12.20;2.77;;;;;;;2.66;52.68;99250.19;1661980;84;21100;-74
2022/04/01 08:38:34;;;;;;;15.50;4.10;;;;;;;2.67;52.66;99255.34;1679433;84;21007;-75
2022/04/01 08:41:02;;;;;;;9.17;2.90;;;;;;;2.74;52.72;99256.48;1667690;86;21222;-74
2022/04/01 08:43:36;;;;;;;9.53;3.37;;;;;;;2.76;52.46;99252.97;1683282;83;21079;-74
2022/04/01 08:46:08;;;;;;;12.63;3.40;;;;;;;2.80;52.20;99242.09;1688667;85;21012;-74
2022/04/01 08:48:36;;;;;;;9.57;3.30;;;;;;;2.86;52.04;99249.74;1681984;84;20989;-73
2022/04/01 08:51:03;;;;;;;6.83;2.97;;;;;;;2.91;51.73;99262.13;1680555;85;21124;-73
2022/04/01 08:53:37;;;;;;;10.00;3.20;;;;;;;3.00;51.52;99262.34;1679832;85;21070;-73
2022/04/01 08:56:05;;;;;;;7.87;3.40;;;;;;;3.05;51.29;99257.46;1684814;83;21173;-72
2022/04/01 08:58:35;;;;;;;11.10;3.17;;;;;;;3.09;51.10;99255.19;1677810;85;21020;-72
2022/04/01 09:01:05;;;;;;;9.45;3.22;;;;;;;3.15;50.92;99262.40;1673698;84;21059;-75
2022/04/01 09:03:34;;;;;;;14.68;3.62;;;;;;;3.22;50.71;99256.19;1690660;84;21059;-73
2022/04/01 09:06:05;;;;;;;7.77;3.10;;;;;;;3.31;50.61;99258.54;1694396;84;21082;-81
2022/04/01 09:08:38;;;;;;;8.78;3.10;;;;;;;3.32;50.28;99265.41;1682432;85;22161;-74
2022/04/01 09:11:14;;;;;;;5.17;2.80;;;;;;;3.38;50.09;99266.98;1676151;85;20996;-74
2022/04/01 09:13:50;;;;;;;8.73;2.93;;;;;;;3.51;49.95;99272.26;1671708;85;21099;-73
2022/04/01 09:16:38;;;;;;;8.20;3.20;;;;;;;3.58;49.77;99275.95;1692073;84;21085;-72
2022/04/01 09:19:02;;;;;;;14.43;4.37;;;;;;;3.67;49.70;99283.08;1672043;84;21062;-72
2022/04/01 09:21:42;;;;;;;58.60;20.73;;;;;;;3.72;49.38;99275.58;1688509;85;21966;-75
2022/04/01 09:24:05;;;;;;;8.77;4.20;;;;;;;3.77;49.53;99276.77;1687854;85;21073;-72
2022/04/01 09:26:37;;;;;;;11.97;4.47;;;;;;;3.74;49.35;99278.11;1688758;85;21078;-74
2022/04/01 09:29:07;;;;;;;9.60;3.40;;;;;;;3.74;49.35;99278.98;1689182;85;21002;-74
2022/04/01 09:31:38;;;;;;;9.00;3.70;;;;;;;3.82;49.46;99283.94;1689010;85;21010;-72
2022/04/01 09:34:13;;;;;;;22.33;12.27;;;;;;;3.95;49.49;99278.83;1689110;85;21160;-71
2022/04/01 09:36:42;;;;;;;11.27;4.20;;;;;;;4.06;49.39;99288.90;1667217;86;21032;-72
2022/04/01 09:39:16;;;;;;;10.57;4.70;;;;;;;4.08;49.38;99288.41;1674520;85;21519;-74
2022/04/01 09:41:49;;;;;;;13.03;4.53;;;;;;;4.10;49.25;99290.95;1712170;83;21019;-71
2022/04/01 09:44:34;;;;;;;15.27;4.40;;;;;;;4.03;49.26;99295.02;1725647;83;21067;-72
2022/04/01 09:47:05;;;;;;;10.57;3.67;;;;;;;4.01;49.23;99298.55;1725626;83;21227;-71
2022/04/01 09:49:42;;;;;;;12.07;4.60;;;;;;;3.97;49.24;99299.09;1725548;83;20995;-72
2022/04/01 09:52:15;;;;;;;7.27;2.87;;;;;;;3.98;49.46;99297.34;1725830;83;21623;-71
2022/04/01 09:54:54;;;;;;;9.10;4.43;;;;;;;4.01;49.36;99306.33;1725636;83;21015;-71
2022/04/01 09:57:24;;;;;;;12.27;4.13;;;;;;;4.06;49.57;99304.91;1708852;82;21654;-75
2022/04/01 09:59:53;;;;;;;7.40;3.92;;;;;;;4.11;49.77;99304.34;1705876;84;22142;-71
2022/04/01 10:02:20;;;;;;;24.40;6.60;;;;;;;4.12;49.68;99308.63;1705906;84;20955;-71
2022/04/01 10:04:47;;;;;;;12.73;4.10;;;;;;;4.08;49.61;99309.61;1705488;84;21023;-73
2022/04/01 10:07:15;;;;;;;18.50;7.33;;;;;;;4.06;49.75;99303.16;1705827;84;21070;-74
2022/04/01 10:09:43;;;;;;;17.23;7.33;;;;;;;4.06;49.81;99313.98;1705609;83;21050;-76
2022/04/01 10:12:14;;;;;;;11.20;4.03;;;;;;;4.07;49.80;99308.73;1705623;84;21132;-75
2022/04/01 10:14:41;;;;;;;16.62;4.55;;;;;;;4.03;49.87;99304.09;1705384;84;21063;-74
2022/04/01 10:17:11;;;;;;;9.63;3.80;;;;;;;4.05;50.13;99303.19;1705775;84;21031;-75
2022/04/01 10:19:41;;;;;;;11.57;3.87;;;;;;;4.11;50.17;99302.59;1705691;84;21019;-74
2022/04/01 10:22:11;;;;;;;12.63;4.78;;;;;;;4.22;50.37;99298.40;1706124;84;21630;-75
2022/04/01 10:24:42;;;;;;;20.53;4.23;;;;;;;4.32;50.28;99294.63;1705387;84;21178;-75
2022/04/01 10:27:40;;;;;;;11.70;3.97;;;;;;;4.36;50.21;99296.25;1694830;83;21035;-74
2022/04/01 10:30:15;;;;;;;14.00;4.50;;;;;;;4.45;50.13;99295.13;1705626;83;21010;-73
2022/04/01 10:32:48;;;;;;;18.80;5.17;;;;;;;4.51;49.92;99298.83;1705488;84;21043;-75
2022/04/01 10:35:28;;;;;;;12.00;4.97;;;;;;;4.64;49.99;99287.19;1705605;84;21259;-75
2022/04/01 10:38:07;;;;;;;;;;;;;;;4.74;49.85;99298.57;1708299;84;21883;-74
2022/04/01 10:40:38;;;;;;;13.57;4.93;;;;;;;4.81;49.68;99290.55;1701799;84;20190;-75
2022/04/01 10:43:21;;;;;;;14.60;4.33;;;;;;;4.87;49.37;99289.05;1700065;84;21025;-74
2022/04/01 10:46:03;;;;;;;13.70;4.23;;;;;;;4.97;49.24;99287.03;1700108;84;21019;-74
2022/04/01 10:51:38;;;;;;;16.90;5.10;;;;;;;5.17;48.75;99281.19;1696897;84;21073;-73
2022/04/01 10:54:16;;;;;;;9.00;3.63;;;;;;;5.27;48.60;99270.90;1696883;84;21055;-74
2022/04/01 10:57:05;;;;;;;16.83;4.50;;;;;;;5.33;48.29;99284.98;1696952;84;21051;-74
2022/04/01 10:59:42;;;;;;;15.03;4.13;;;;;;;5.47;48.25;99279.77;1696661;84;21546;-73
2022/04/01 11:02:15;;;;;;;16.55;4.87;;;;;;;5.62;47.96;99283.58;1697025;84;21064;-73
2022/04/01 11:04:44;;;;;;;10.77;3.43;;;;;;;5.78;47.94;99286.05;1697210;84;21163;-73
2022/04/01 11:07:25;;;;;;;12.07;4.25;;;;;;;5.89;47.54;99288.27;1696701;84;21026;-78
2022/04/01 11:09:58;;;;;;;13.97;4.73;;;;;;;5.90;47.29;99286.06;1694023;84;21516;-74
2022/04/01 11:12:42;;;;;;;15.70;3.60;;;;;;;5.90;47.13;99289.95;1696769;84;21043;-74
2022/04/01 11:15:11;;;;;;;12.03;3.40;;;;;;;5.94;47.32;99287.70;1695643;84;21000;-78
2022/04/01 11:17:50;;;;;;;13.40;4.60;;;;;;;6.03;47.01;99289.50;1696985;84;21807;-74
2022/04/01 11:20:28;;;;;;;13.77;3.63;;;;;;;6.04;46.53;99289.03;1697042;84;21106;-75
2022/04/01 11:23:01;;;;;;;15.97;4.50;;;;;;;5.98;46.21;99284.91;1696790;84;21098;-73
2022/04/01 11:25:38;;;;;;;11.70;5.03;;;;;;;6.01;46.31;99291.75;1697105;84;21075;-74
2022/04/01 11:28:10;;;;;;;24.33;6.43;;;;;;;6.03;46.33;99292.09;1696850;84;21509;-74
2022/04/01 11:30:54;;;;;;;14.40;3.50;;;;;;;6.03;46.09;99293.39;1696803;84;21869;-73
2022/04/01 11:33:22;;;;;;;18.53;3.90;;;;;;;5.95;45.79;99290.22;1669277;84;20963;-74
2022/04/01 11:35:53;;;;;;;15.57;4.43;;;;;;;5.90;45.73;99281.70;1696608;84;21011;-73
2022/04/01 11:38:25;;;;;;;15.97;3.73;;;;;;;5.89;45.67;99285.22;1696730;84;21059;-73
2022/04/01 11:40:56;;;;;;;18.87;3.93;;;;;;;5.85;45.45;99281.04;1696456;84;21031;-73
2022/04/01 11:43:26;;;;;;;15.67;3.10;;;;;;;5.85;45.53;99286.24;1686355;85;21229;-74
2022/04/01 11:46:04;;;;;;;14.80;4.33;;;;;;;5.79;45.29;99287.31;1686680;84;21466;-74
2022/04/01 11:48:46;;;;;;;13.27;3.43;;;;;;;5.76;45.51;99283.95;1686400;85;21632;-74
2022/04/01 11:51:19;;;;;;;16.83;3.40;;;;;;;5.71;45.21;99285.85;1658460;86;21060;-74
2022/04/01 11:53:52;;;;;;;19.63;3.17;;;;;;;5.64;45.08;99280.48;1658083;86;21052;-73
2022/04/01 11:56:23;;;;;;;11.20;3.60;;;;;;;5.53;44.93;99284.30;1658390;86;21175;-74
2022/04/01 11:59:07;;;;;;;16.57;3.50;;;;;;;5.52;45.05;99281.31;1657893;86;21095;-74
2022/04/01 12:01:54;;;;;;;13.93;3.50;;;;;;;5.55;44.88;99273.86;1658012;86;21500;-74
2022/04/01 12:04:12;;;;;;;8.70;2.90;;;;;;;5.61;44.65;99273.64;1652346;84;21499;-76
2022/04/01 12:09:33;;;;;;;13.73;3.03;;;;;;;5.73;44.34;99275.80;1677407;84;21220;-75
2022/04/01 12:12:01;;;;;;;18.93;3.97;;;;;;;5.78;44.28;99278.25;1675402;85;21039;-75
2022/04/01 12:14:30;;;;;;;14.63;3.00;;;;;;;5.86;44.23;99271.48;1652304;85;21024;-75